createdAt,value
2022-10-07T00:03:38.953Z,87.5
2022-10-07T00:08:45.170Z,87.5
2022-10-07T00:13:50.397Z,87.5
2022-10-07T00:18:56.606Z,87.5
2022-10-07T00:24:02.829Z,88.0
2022-10-07T00:29:09.024Z,88.0
2022-10-07T00:34:15.233Z,88.0
2022-10-07T00:39:21.438Z,88.0
2022-10-07T00:44:27.652Z,88.0
2022-10-07T00:49:33.856Z,88.5
2022-10-07T00:54:40.067Z,88.5
2022-10-07T00:59:46.275Z,88.5
2022-10-07T01:04:52.480Z,88.5
2022-10-07T01:09:58.687Z,88.5
2022-10-07T01:15:04.904Z,89.0
2022-10-07T01:20:11.110Z,89.0
2022-10-07T01:25:17.313Z,89.0
2022-10-07T01:30:23.522Z,89.5
2022-10-07T01:35:29.740Z,89.5
2022-10-07T01:40:35.939Z,89.5
2022-10-07T01:45:42.149Z,89.5
2022-10-07T01:50:48.359Z,89.5
2022-10-07T01:55:54.565Z,89.5
2022-10-07T02:00:59.799Z,89.5
2022-10-07T02:06:06.007Z,89.5
2022-10-07T02:11:11.248Z,89.5
2022-10-07T02:16:17.548Z,90.0
2022-10-07T02:21:23.663Z,90.0
2022-10-07T02:26:29.869Z,90.0
2022-10-07T02:31:36.073Z,90.0
2022-10-07T02:36:42.283Z,90.0
2022-10-07T02:41:47.513Z,90.5
2022-10-07T02:46:53.729Z,90.5
2022-10-07T02:51:59.921Z,90.5
2022-10-07T02:57:06.134Z,90.5
2022-10-07T03:02:12.341Z,90.5
2022-10-07T03:07:18.547Z,90.5
2022-10-07T03:12:24.767Z,90.5
2022-10-07T03:17:30.968Z,90.5
2022-10-07T03:22:37.174Z,90.5
2022-10-07T03:27:43.666Z,90.5
2022-10-07T03:32:49.607Z,90.5
2022-10-07T03:37:55.807Z,90.5
2022-10-07T03:43:02.011Z,91.0
2022-10-07T03:48:08.217Z,91.0
2022-10-07T03:53:14.428Z,91.0
2022-10-07T03:58:19.664Z,91.0
2022-10-07T04:03:25.960Z,91.0
2022-10-07T04:08:32.513Z,91.0
2022-10-07T04:13:37.314Z,91.0
2022-10-07T04:18:43.522Z,91.0
2022-10-07T04:23:49.727Z,91.0
2022-10-07T04:28:55.940Z,91.0
2022-10-07T04:34:02.149Z,91.0
2022-10-07T04:39:08.356Z,91.0
2022-10-07T04:44:14.578Z,91.5
2022-10-07T04:49:20.768Z,91.5
2022-10-07T04:54:26.975Z,91.5
2022-10-07T04:59:34.475Z,91.5
2022-10-07T05:04:39.402Z,92.0
2022-10-07T05:09:45.602Z,92.0
2022-10-07T05:14:51.810Z,92.0
2022-10-07T05:19:58.015Z,92.0
2022-10-07T05:25:04.234Z,92.0
2022-10-07T05:30:10.441Z,92.0
2022-10-07T05:35:16.636Z,92.0
2022-10-07T05:40:22.841Z,92.0
2022-10-07T05:45:29.155Z,92.0
2022-10-07T05:50:35.262Z,92.5
2022-10-07T05:55:41.470Z,92.0
2022-10-07T06:00:46.704Z,92.0
2022-10-07T06:05:52.911Z,92.0
2022-10-07T06:10:58.144Z,92.5
2022-10-07T06:16:04.357Z,92.5
2022-10-07T06:21:10.569Z,92.5
2022-10-07T06:26:16.773Z,92.5
2022-10-07T06:31:22.992Z,92.5
2022-10-07T06:36:29.186Z,93.0
2022-10-07T06:41:35.396Z,93.0
2022-10-07T06:46:41.598Z,93.0
2022-10-07T06:51:47.806Z,93.5
2022-10-07T06:56:54.020Z,93.5
2022-10-07T07:02:00.249Z,93.5
2022-10-07T07:07:06.437Z,93.5
2022-10-07T07:12:12.644Z,93.5
2022-10-07T07:17:18.850Z,93.5
2022-10-07T07:22:25.056Z,93.0
2022-10-07T07:27:31.278Z,93.0
2022-10-07T07:32:37.485Z,93.0
2022-10-07T07:37:43.915Z,93.0
2022-10-07T07:42:49.897Z,93.0
2022-10-07T07:47:56.104Z,93.0
2022-10-07T07:53:02.306Z,93.0
2022-10-07T07:58:11.848Z,92.5
2022-10-07T08:03:13.753Z,92.5
2022-10-07T08:08:19.964Z,92.5
2022-10-07T08:13:25.193Z,92.5
2022-10-07T08:18:31.408Z,92.5
2022-10-07T08:23:37.608Z,92.5
2022-10-07T08:28:43.818Z,92.5
2022-10-07T08:33:50.025Z,92.0
2022-10-07T08:38:56.236Z,92.0
2022-10-07T08:44:04.189Z,92.0
2022-10-07T08:49:08.669Z,91.5
2022-10-07T08:54:14.860Z,91.0
2022-10-07T08:59:21.077Z,90.5
2022-10-07T09:04:27.280Z,90.5
2022-10-07T09:09:33.497Z,90.0
2022-10-07T09:14:39.722Z,90.0
2022-10-07T09:19:45.932Z,90.0
2022-10-07T09:24:52.138Z,89.5
2022-10-07T09:29:58.363Z,88.5
2022-10-07T09:35:04.578Z,88.5
2022-10-07T09:40:10.776Z,87.5
2022-10-07T09:45:16.976Z,87.0
2022-10-07T09:50:23.215Z,86.5
2022-10-07T09:55:29.392Z,86.0
2022-10-07T10:00:34.637Z,85.0
2022-10-07T10:05:40.847Z,84.0
2022-10-07T10:10:47.047Z,83.5
2022-10-07T10:15:53.307Z,83.5
2022-10-07T10:20:59.466Z,83.5
2022-10-07T10:26:05.681Z,83.5
2022-10-07T10:31:11.915Z,83.0
2022-10-07T10:36:18.086Z,82.5
2022-10-07T10:41:24.298Z,82.0
2022-10-07T10:46:30.557Z,81.5
2022-10-07T10:51:36.715Z,81.0
2022-10-07T10:56:42.929Z,80.0
2022-10-07T11:01:49.211Z,79.0
2022-10-07T11:06:55.342Z,78.0
2022-10-07T11:12:01.758Z,78.0
2022-10-07T11:17:07.759Z,77.5
2022-10-07T11:22:13.973Z,77.0
2022-10-07T11:27:20.177Z,77.0
2022-10-07T11:32:26.381Z,77.0
2022-10-07T11:37:32.591Z,76.5
2022-10-07T11:42:38.800Z,77.0
2022-10-07T11:47:44.040Z,75.5
2022-10-07T11:52:50.631Z,74.5
2022-10-07T11:57:55.489Z,74.0
2022-10-07T12:03:01.720Z,74.0
2022-10-07T12:08:06.918Z,74.5
2022-10-07T12:13:13.132Z,73.5
2022-10-07T12:18:19.340Z,73.0
2022-10-07T12:23:25.555Z,72.5
2022-10-07T12:28:31.810Z,71.5
2022-10-07T12:33:37.968Z,71.5
2022-10-07T12:38:44.179Z,71.5
2022-10-07T12:43:50.388Z,71.5
2022-10-07T12:48:56.590Z,71.0
2022-10-07T12:54:02.805Z,71.5
2022-10-07T12:59:09.009Z,71.5
2022-10-07T13:04:15.215Z,71.5
2022-10-07T13:09:21.430Z,71.0
2022-10-07T13:14:27.641Z,70.5
2022-10-07T13:19:33.849Z,70.5
2022-10-07T13:24:40.053Z,70.0
2022-10-07T13:29:46.261Z,69.5
2022-10-07T13:34:52.473Z,69.5
2022-10-07T13:39:58.681Z,69.5
2022-10-07T13:45:04.888Z,68.5
2022-10-07T13:50:11.111Z,68.0
2022-10-07T13:55:16.336Z,68.0
2022-10-07T14:00:22.546Z,67.5
2022-10-07T14:05:27.791Z,67.5
2022-10-07T14:10:33.995Z,67.5
2022-10-07T14:15:40.202Z,68.0
2022-10-07T14:20:46.407Z,68.0
2022-10-07T14:25:52.618Z,68.5
2022-10-07T14:30:58.874Z,68.0
2022-10-07T14:36:05.029Z,68.0
2022-10-07T14:41:11.246Z,68.0
2022-10-07T14:46:17.520Z,68.0
2022-10-07T14:51:23.659Z,68.0
2022-10-07T14:56:29.873Z,67.5
2022-10-07T15:01:36.076Z,67.5
2022-10-07T15:06:42.289Z,68.0
2022-10-07T15:11:48.495Z,68.0
2022-10-07T15:16:54.804Z,68.0
2022-10-07T15:22:00.918Z,68.0
2022-10-07T15:27:07.128Z,68.0
2022-10-07T15:32:13.336Z,68.0
2022-10-07T15:37:19.544Z,68.5
2022-10-07T15:42:25.755Z,68.5
2022-10-07T15:47:31.957Z,69.0
2022-10-07T15:52:37.189Z,69.0
2022-10-07T15:57:43.404Z,68.5
2022-10-07T16:02:49.946Z,69.0
2022-10-07T16:07:55.816Z,69.5
2022-10-07T16:13:02.040Z,69.5
2022-10-07T16:18:08.237Z,70.0
2022-10-07T16:23:14.442Z,70.5
2022-10-07T16:28:20.699Z,70.5
2022-10-07T16:33:26.853Z,71.0
2022-10-07T16:38:33.064Z,71.5
2022-10-07T16:43:39.275Z,72.0
2022-10-07T16:48:45.479Z,72.5
2022-10-07T16:53:51.697Z,72.5
2022-10-07T16:58:57.903Z,73.0
2022-10-07T17:04:04.169Z,73.0
2022-10-07T17:09:10.318Z,73.5
2022-10-07T17:14:16.637Z,74.0
2022-10-07T17:19:22.742Z,74.0
2022-10-07T17:24:28.941Z,74.5
2022-10-07T17:29:35.155Z,75.0
2022-10-07T17:34:45.275Z,75.0
2022-10-07T17:39:46.607Z,75.5
2022-10-07T17:44:52.808Z,76.0
2022-10-07T17:49:58.051Z,76.5
2022-10-07T17:55:04.262Z,76.5
2022-10-07T18:00:09.489Z,77.0
2022-10-07T18:05:15.694Z,77.0
2022-10-07T18:10:21.912Z,77.5
2022-10-07T18:15:28.108Z,77.5
2022-10-07T18:20:34.328Z,78.0
2022-10-07T18:25:40.526Z,78.0
2022-10-07T18:30:46.736Z,78.5
2022-10-07T18:35:52.949Z,78.5
2022-10-07T18:40:59.151Z,78.5
2022-10-07T18:46:05.458Z,79.0
2022-10-07T18:51:11.600Z,79.0
2022-10-07T18:56:17.786Z,79.5
2022-10-07T19:01:24.130Z,79.5
2022-10-07T19:06:30.202Z,80.0
2022-10-07T19:11:36.427Z,80.0
2022-10-07T19:16:42.711Z,80.5
2022-10-07T19:21:48.855Z,80.5
2022-10-07T19:26:55.077Z,80.5
2022-10-07T19:32:05.723Z,81.0
2022-10-07T19:37:07.503Z,81.0
2022-10-07T19:42:13.717Z,81.5
2022-10-07T19:47:18.967Z,81.5
2022-10-07T19:52:25.189Z,81.5
2022-10-07T19:57:30.424Z,82.0
2022-10-07T20:02:36.722Z,82.0
2022-10-07T20:07:42.904Z,82.0
2022-10-07T20:12:49.067Z,82.5
2022-10-07T20:17:55.287Z,82.5
2022-10-07T20:23:01.504Z,82.5
2022-10-07T20:28:07.746Z,82.5
2022-10-07T20:33:13.941Z,82.5
2022-10-07T20:38:20.211Z,83.0
2022-10-07T20:43:26.357Z,83.0
2022-10-07T20:48:32.586Z,83.0
2022-10-07T20:53:38.786Z,83.0
2022-10-07T20:58:45.012Z,83.0
2022-10-07T21:03:51.223Z,83.0
2022-10-07T21:08:57.438Z,83.5
2022-10-07T21:14:03.651Z,83.5
2022-10-07T21:19:09.863Z,83.5
2022-10-07T21:24:16.076Z,83.5
2022-10-07T21:29:22.291Z,84.0
2022-10-07T21:34:28.518Z,84.0
2022-10-07T21:39:34.718Z,84.0
2022-10-07T21:44:39.965Z,84.5
2022-10-07T21:49:46.179Z,84.5
2022-10-07T21:54:52.396Z,84.5
2022-10-07T21:59:58.602Z,84.5
2022-10-07T22:05:04.827Z,84.5
2022-10-07T22:10:11.033Z,84.5
2022-10-07T22:15:17.241Z,85.0
2022-10-07T22:20:23.459Z,85.0
2022-10-07T22:25:29.673Z,85.0
2022-10-07T22:30:36.015Z,85.0
2022-10-07T22:35:42.101Z,85.0
2022-10-07T22:40:48.306Z,85.0
2022-10-07T22:51:00.733Z,85.0
2022-10-07T22:56:06.982Z,85.0
2022-10-07T23:01:13.157Z,85.0
2022-10-07T23:06:19.358Z,85.5
2022-10-07T23:11:25.572Z,85.5
2022-10-07T23:16:31.779Z,86.0
2022-10-07T23:21:38.000Z,86.0
2022-10-07T23:26:44.205Z,86.0
2022-10-07T23:31:50.421Z,86.5
2022-10-07T23:36:55.664Z,86.5
2022-10-07T23:42:01.867Z,86.5
2022-10-07T23:47:07.111Z,87.0
2022-10-07T23:52:13.322Z,87.0
2022-10-07T23:57:19.536Z,87.0
